Sugarbush Valley, Vermont
Current Conditions -  °F | °C
As of 10:15 AM on Wednesday 22 Oct 2014 (Local Time) from K6B0 Reporting Station
Overcast Overcast  
Wind Chill: 45°   Ceiling: 500
Heat Index: 48°   Visibility: 10mi
Dew Point: 48°   Wind: 7mph
Humidity: 100%   Direction: 350°N
Pressure: 30.15"   Gusts: NA
Location:  44.1108°N, 72.8612°W
Report Text: K6B0 221415Z AUTO 35006KT 320V020 10SM OVC005 09/09 A3015 RMK AO2 T00900090
Loading
Personal Weather Stations






























Interactive Weather Map New forecast layout! Learn more

10-Day Weather Forecast

Advertisements
Track Severe Weather on mobile